createdAt,value
2018-03-31T00:01:04.981Z,61.00
2018-03-31T00:03:32.122Z,61.40
2018-03-31T00:05:59.220Z,61.40
2018-03-31T00:08:27.111Z,61.30
2018-03-31T00:10:54.638Z,61.30
2018-03-31T00:13:22.515Z,61.10
2018-03-31T00:15:50.422Z,61.30
2018-03-31T00:18:17.582Z,61.40
2018-03-31T00:20:44.696Z,61.50
2018-03-31T00:23:11.859Z,61.60
2018-03-31T00:25:39.767Z,61.70
2018-03-31T00:28:07.285Z,61.60
2018-03-31T00:30:34.438Z,61.50
2018-03-31T00:33:01.583Z,61.70
2018-03-31T00:35:28.727Z,61.70
2018-03-31T00:37:57.293Z,61.80
2018-03-31T00:40:24.498Z,61.80
2018-03-31T00:42:51.609Z,61.70
2018-03-31T00:45:18.950Z,61.90
2018-03-31T00:47:46.992Z,62.10
2018-03-31T00:50:14.435Z,62.20
2018-03-31T00:52:41.597Z,62.10
2018-03-31T00:55:08.681Z,62.10
2018-03-31T00:57:35.920Z,62.10
2018-03-31T01:00:03.174Z,62.10
2018-03-31T01:02:31.166Z,62.20
2018-03-31T01:05:00.041Z,62.30
2018-03-31T01:07:27.230Z,62.40
2018-03-31T01:09:55.006Z,62.50
2018-03-31T01:12:22.997Z,62.40
2018-03-31T01:14:50.901Z,62.30
2018-03-31T01:17:18.955Z,62.40
2018-03-31T01:19:46.251Z,62.60
2018-03-31T01:22:13.493Z,62.20
2018-03-31T01:24:40.652Z,62.60
2018-03-31T01:27:07.825Z,62.70
2018-03-31T01:29:35.790Z,62.60
2018-03-31T01:32:03.742Z,62.20
2018-03-31T01:34:31.672Z,62.30
2018-03-31T01:36:58.765Z,62.30
2018-03-31T01:39:26.006Z,62.40
2018-03-31T01:41:53.957Z,62.50
2018-03-31T01:44:21.060Z,62.50
2018-03-31T01:46:48.239Z,62.30
2018-03-31T01:49:15.833Z,62.20
2018-03-31T01:51:44.359Z,62.50
2018-03-31T01:54:11.531Z,62.60
2018-03-31T01:56:38.707Z,62.40
2018-03-31T01:59:06.580Z,62.40
2018-03-31T02:01:33.836Z,62.90
2018-03-31T02:04:00.950Z,62.50
2018-03-31T02:06:28.168Z,62.70
2018-03-31T02:08:56.075Z,62.50
2018-03-31T02:11:23.302Z,62.50
2018-03-31T02:13:50.418Z,62.60
2018-03-31T02:16:18.325Z,62.70
2018-03-31T02:18:46.215Z,62.60
2018-03-31T02:21:14.125Z,62.80
2018-03-31T02:23:41.256Z,62.70
2018-03-31T02:26:08.386Z,62.80
2018-03-31T02:28:35.556Z,62.60
2018-03-31T02:31:03.495Z,62.60
2018-03-31T02:33:30.617Z,62.60
2018-03-31T02:36:00.022Z,62.60
2018-03-31T02:38:27.617Z,62.70
2018-03-31T02:40:54.980Z,62.80
2018-03-31T02:43:22.093Z,63.00
2018-03-31T02:45:49.192Z,63.00
2018-03-31T02:48:16.371Z,63.00
2018-03-31T02:50:44.011Z,63.00
2018-03-31T02:53:11.876Z,63.00
2018-03-31T02:55:39.815Z,63.20
2018-03-31T02:58:06.938Z,63.20
2018-03-31T03:00:34.088Z,63.10
2018-03-31T03:03:01.238Z,63.00
2018-03-31T03:05:28.356Z,63.20
2018-03-31T03:07:55.503Z,63.40
2018-03-31T03:10:22.643Z,63.20
2018-03-31T03:12:49.799Z,63.20
2018-03-31T03:15:16.923Z,63.20
2018-03-31T03:17:44.886Z,63.20
2018-03-31T03:20:12.028Z,63.10
2018-03-31T03:22:39.190Z,63.30
2018-03-31T03:25:07.122Z,63.30
2018-03-31T03:27:34.241Z,63.30
2018-03-31T03:30:01.373Z,63.40
2018-03-31T03:32:28.527Z,63.30
2018-03-31T03:34:55.660Z,63.20
2018-03-31T03:37:25.824Z,63.30
2018-03-31T03:39:52.930Z,63.30
2018-03-31T03:42:20.083Z,63.20
2018-03-31T03:44:47.258Z,63.00
2018-03-31T03:47:14.371Z,63.10
2018-03-31T03:49:42.260Z,63.30
2018-03-31T03:52:09.395Z,64.00
2018-03-31T03:54:36.546Z,63.00
2018-03-31T03:57:04.415Z,62.60
2018-03-31T03:59:31.549Z,62.60
2018-03-31T04:01:59.463Z,62.60
2018-03-31T04:04:26.579Z,62.60
2018-03-31T04:06:53.701Z,62.40
2018-03-31T04:09:20.850Z,62.40
2018-03-31T04:11:48.736Z,62.20
2018-03-31T04:14:16.704Z,62.10
2018-03-31T04:16:49.645Z,62.10
2018-03-31T04:19:21.795Z,61.80
2018-03-31T04:21:58.948Z,61.90
2018-03-31T04:24:31.220Z,61.90
2018-03-31T04:27:04.417Z,61.60
2018-03-31T04:29:33.032Z,61.70
2018-03-31T04:32:03.947Z,61.80
2018-03-31T04:34:33.437Z,61.70
2018-03-31T04:37:06.142Z,61.70
2018-03-31T04:39:33.660Z,61.70
2018-03-31T04:42:07.189Z,61.50
2018-03-31T04:44:36.309Z,61.50
2018-03-31T04:47:07.441Z,61.50
2018-03-31T04:49:35.561Z,61.40
2018-03-31T04:52:05.469Z,61.80
2018-03-31T04:57:11.141Z,60.90
2018-03-31T04:59:42.427Z,60.90
2018-03-31T05:02:13.221Z,60.80
2018-03-31T05:04:45.575Z,60.80
2018-03-31T05:07:15.071Z,60.80
2018-03-31T05:09:46.950Z,60.60
2018-03-31T05:14:55.357Z,60.70
2018-03-31T05:17:23.649Z,60.80
2018-03-31T05:22:33.261Z,60.50
2018-03-31T05:25:04.653Z,60.00
2018-03-31T05:27:32.145Z,60.00
2018-03-31T05:30:05.589Z,60.00
2018-03-31T05:32:36.906Z,60.00
2018-03-31T05:35:06.626Z,60.00
2018-03-31T05:37:36.107Z,59.70
2018-03-31T05:40:07.937Z,59.70
2018-03-31T05:45:12.904Z,59.60
2018-03-31T05:47:44.304Z,59.20
2018-03-31T05:50:14.057Z,59.20
2018-03-31T05:52:46.410Z,59.20
2018-03-31T05:55:16.607Z,59.10
2018-03-31T05:57:50.810Z,59.20
2018-03-31T06:00:22.416Z,59.30
2018-03-31T06:02:52.736Z,59.30
2018-03-31T06:05:26.178Z,59.20
2018-03-31T06:07:54.924Z,58.80
2018-03-31T06:10:23.838Z,59.20
2018-03-31T06:12:54.517Z,58.40
2018-03-31T06:15:24.048Z,58.60
2018-03-31T06:17:53.854Z,58.40
2018-03-31T06:20:23.053Z,58.40
2018-03-31T06:22:56.947Z,58.60
2018-03-31T06:25:29.526Z,58.60
2018-03-31T06:27:59.438Z,58.70
2018-03-31T06:30:31.460Z,58.90
2018-03-31T06:33:03.699Z,59.10
2018-03-31T06:35:34.097Z,59.00
2018-03-31T06:38:03.051Z,58.80
2018-03-31T06:40:35.339Z,59.00
2018-03-31T06:43:06.212Z,59.00
2018-03-31T06:45:36.220Z,59.10
2018-03-31T06:48:06.993Z,59.50
2018-03-31T06:50:36.453Z,59.40
2018-03-31T06:53:06.434Z,59.60
2018-03-31T06:55:37.504Z,60.00
2018-03-31T06:58:07.503Z,60.70
2018-03-31T07:00:36.246Z,60.00
2018-03-31T07:03:09.702Z,59.70
2018-03-31T07:05:39.093Z,59.70
2018-03-31T07:08:11.584Z,60.40
2018-03-31T07:10:41.801Z,60.40
2018-03-31T07:13:13.239Z,59.70
2018-03-31T07:15:44.421Z,59.40
2018-03-31T07:18:12.730Z,59.50
2018-03-31T07:20:44.291Z,59.40
2018-03-31T07:23:15.139Z,59.50
2018-03-31T07:25:45.459Z,59.60
2018-03-31T07:28:17.263Z,59.60
2018-03-31T07:30:49.564Z,59.50
2018-03-31T07:33:22.630Z,59.90
2018-03-31T07:35:59.211Z,60.50
2018-03-31T07:41:04.644Z,61.40
2018-03-31T07:43:40.654Z,61.80
2018-03-31T07:46:16.144Z,62.70
2018-03-31T07:48:45.097Z,62.70
2018-03-31T07:51:17.016Z,62.60
2018-03-31T07:56:27.239Z,63.50
2018-03-31T07:58:57.091Z,63.50
2018-03-31T08:01:39.730Z,64.10
2018-03-31T08:04:13.161Z,64.10
2018-03-31T08:06:44.093Z,63.10
2018-03-31T08:09:14.254Z,63.40
2018-03-31T08:11:43.916Z,64.10
2018-03-31T08:14:14.140Z,65.00
2018-03-31T08:16:43.064Z,65.00
2018-03-31T08:19:12.807Z,66.00
2018-03-31T08:21:44.163Z,65.90
2018-03-31T08:24:18.469Z,66.40
2018-03-31T08:26:50.054Z,66.30
2018-03-31T08:29:18.464Z,66.50
2018-03-31T08:31:51.026Z,66.50
2018-03-31T08:34:23.032Z,65.80
2018-03-31T08:36:53.049Z,65.20
2018-03-31T08:39:26.151Z,65.20
2018-03-31T08:41:53.883Z,66.30
2018-03-31T08:44:23.455Z,65.70
2018-03-31T08:46:53.185Z,64.70
2018-03-31T08:49:24.612Z,64.40
2018-03-31T08:51:54.645Z,63.90
2018-03-31T08:54:24.948Z,63.70
2018-03-31T08:56:55.326Z,64.40
2018-03-31T08:59:23.962Z,64.40
2018-03-31T09:01:53.984Z,63.80
2018-03-31T09:04:27.850Z,63.20
2018-03-31T09:07:02.079Z,64.00
2018-03-31T09:09:35.660Z,65.10
2018-03-31T09:12:04.258Z,66.00
2018-03-31T09:14:36.735Z,65.30
2018-03-31T09:17:07.919Z,66.10
2018-03-31T09:19:35.158Z,66.00
2018-03-31T09:22:02.446Z,66.60
2018-03-31T09:24:30.373Z,66.20
2018-03-31T09:26:57.619Z,65.20
2018-03-31T09:29:25.543Z,65.80
2018-03-31T09:31:53.130Z,65.90
2018-03-31T09:34:21.007Z,66.70
2018-03-31T09:36:48.894Z,66.60
2018-03-31T09:39:16.144Z,66.60
2018-03-31T09:41:43.562Z,67.00
2018-03-31T09:44:10.729Z,67.40
2018-03-31T09:46:38.735Z,67.20
2018-03-31T09:49:05.834Z,67.30
2018-03-31T09:51:32.988Z,68.20
2018-03-31T09:54:00.901Z,65.70
2018-03-31T09:56:28.008Z,65.70
2018-03-31T09:58:55.942Z,66.00
2018-03-31T10:01:23.055Z,66.00
2018-03-31T10:03:50.174Z,64.60
2018-03-31T10:06:18.073Z,64.60
2018-03-31T10:08:45.199Z,64.50
2018-03-31T10:11:12.350Z,65.40
2018-03-31T10:13:39.485Z,64.40
2018-03-31T10:16:07.364Z,64.60
2018-03-31T10:18:34.857Z,64.50
2018-03-31T10:21:01.987Z,64.00
2018-03-31T10:23:29.723Z,64.70
2018-03-31T10:25:57.603Z,65.80
2018-03-31T10:28:24.749Z,65.80
2018-03-31T10:30:51.971Z,65.50
2018-03-31T10:33:19.143Z,66.40
2018-03-31T10:35:46.273Z,66.20
2018-03-31T10:38:14.215Z,66.00
2018-03-31T10:40:41.446Z,66.00
2018-03-31T10:43:08.598Z,66.20
2018-03-31T10:45:35.902Z,66.90
2018-03-31T10:48:03.826Z,67.10
2018-03-31T10:50:33.817Z,67.90
2018-03-31T10:53:01.284Z,67.80
2018-03-31T10:55:28.491Z,67.70
2018-03-31T10:57:56.374Z,67.20
2018-03-31T11:00:23.549Z,67.20
2018-03-31T11:02:50.679Z,66.80
2018-03-31T11:05:18.008Z,65.70
2018-03-31T11:07:45.902Z,66.40
2018-03-31T11:10:13.192Z,66.20
2018-03-31T11:12:40.405Z,65.50
2018-03-31T11:15:07.698Z,65.30
2018-03-31T11:17:34.826Z,65.90
2018-03-31T11:20:02.210Z,64.20
2018-03-31T11:22:29.328Z,64.90
2018-03-31T11:24:56.585Z,63.80
2018-03-31T11:27:24.894Z,64.60
2018-03-31T11:29:53.386Z,63.70
2018-03-31T11:32:23.856Z,64.10
2018-03-31T11:34:52.790Z,63.40
2018-03-31T11:37:24.693Z,63.70
2018-03-31T11:39:56.739Z,63.70
2018-03-31T11:42:28.923Z,63.40
2018-03-31T11:44:56.887Z,63.10
2018-03-31T11:47:26.808Z,62.70
2018-03-31T11:49:58.288Z,62.90
2018-03-31T11:52:26.427Z,62.80
2018-03-31T11:54:55.247Z,63.20
2018-03-31T11:57:24.922Z,63.10
2018-03-31T11:59:52.837Z,63.50
2018-03-31T12:02:27.927Z,63.50
2018-03-31T12:04:58.004Z,63.10
2018-03-31T12:07:28.219Z,63.30
2018-03-31T12:09:58.013Z,63.70
2018-03-31T12:12:28.009Z,63.90
2018-03-31T12:15:04.464Z,64.10
2018-03-31T12:17:33.427Z,64.10
2018-03-31T12:20:03.010Z,64.00
2018-03-31T12:58:37.442Z,63.70
2018-03-31T13:01:04.890Z,62.90
2018-03-31T13:03:33.811Z,63.00
2018-03-31T13:06:01.070Z,63.00
2018-03-31T13:08:28.934Z,62.50
2018-03-31T13:10:56.819Z,62.30
2018-03-31T13:13:23.976Z,62.30
2018-03-31T13:15:51.098Z,62.60
2018-03-31T13:18:18.227Z,62.60
2018-03-31T13:20:46.152Z,61.80
2018-03-31T13:23:13.295Z,61.80
2018-03-31T13:25:40.399Z,61.20
2018-03-31T13:28:08.329Z,61.50
2018-03-31T13:30:35.474Z,61.50
2018-03-31T13:33:02.608Z,61.30
2018-03-31T13:35:29.726Z,61.00
2018-03-31T13:37:57.634Z,61.40
2018-03-31T13:40:24.747Z,61.40
2018-03-31T13:42:51.851Z,61.50
2018-03-31T13:45:18.983Z,61.70
2018-03-31T13:47:46.101Z,62.60
2018-03-31T13:50:13.350Z,62.30
2018-03-31T13:52:40.507Z,61.80
2018-03-31T13:55:07.798Z,62.60
2018-03-31T13:57:35.699Z,63.20
2018-03-31T14:00:03.597Z,62.60
2018-03-31T14:02:30.722Z,62.70
2018-03-31T14:04:57.872Z,63.20
2018-03-31T14:07:24.972Z,63.40
2018-03-31T14:09:52.091Z,63.50
2018-03-31T14:12:19.240Z,63.40
2018-03-31T14:14:46.331Z,63.60
2018-03-31T14:17:13.548Z,63.80
2018-03-31T14:19:40.687Z,64.20
2018-03-31T14:22:07.865Z,64.60
2018-03-31T14:24:34.988Z,64.90
2018-03-31T14:27:02.135Z,64.70
2018-03-31T14:29:29.255Z,65.00
2018-03-31T14:31:57.133Z,65.30
2018-03-31T14:34:24.514Z,65.20
2018-03-31T14:36:51.672Z,65.30
2018-03-31T14:39:18.784Z,65.40
2018-03-31T14:41:46.067Z,65.70
2018-03-31T14:44:13.220Z,66.10
2018-03-31T14:46:40.344Z,66.50
2018-03-31T14:49:07.455Z,66.40
2018-03-31T14:51:35.363Z,67.00
2018-03-31T14:54:02.501Z,67.00
2018-03-31T14:56:29.602Z,66.10
2018-03-31T14:58:56.716Z,66.40
2018-03-31T15:01:23.930Z,66.30
2018-03-31T15:03:51.834Z,66.80
2018-03-31T15:06:18.946Z,66.90
2018-03-31T15:08:46.078Z,67.80
2018-03-31T15:11:13.192Z,68.30
2018-03-31T15:13:40.323Z,68.80
2018-03-31T15:16:07.470Z,68.70
2018-03-31T15:18:34.574Z,69.00
2018-03-31T15:21:02.720Z,70.60
2018-03-31T15:23:29.870Z,70.00
2018-03-31T15:25:56.995Z,70.50
2018-03-31T15:28:24.178Z,70.80
2018-03-31T15:30:51.303Z,71.00
2018-03-31T15:33:18.414Z,70.00
2018-03-31T15:35:45.592Z,70.20
2018-03-31T15:38:12.695Z,70.60
2018-03-31T15:40:40.625Z,71.10
2018-03-31T15:43:07.797Z,71.10
2018-03-31T15:45:34.917Z,71.40
2018-03-31T15:48:02.023Z,72.10
2018-03-31T15:50:29.162Z,71.90
2018-03-31T15:52:57.035Z,72.50
2018-03-31T15:55:24.157Z,72.50
2018-03-31T15:57:51.314Z,72.70
2018-03-31T16:00:19.183Z,73.00
2018-03-31T16:02:47.143Z,73.20
2018-03-31T16:05:14.300Z,73.20
2018-03-31T16:07:42.167Z,73.50
2018-03-31T16:10:10.067Z,73.90
2018-03-31T16:12:37.197Z,73.90
2018-03-31T16:15:04.351Z,74.50
2018-03-31T16:17:31.490Z,73.90
2018-03-31T16:19:59.422Z,74.50
2018-03-31T16:22:27.501Z,74.40
2018-03-31T16:24:54.601Z,73.80
2018-03-31T16:27:21.749Z,74.00
2018-03-31T16:29:48.876Z,74.30
2018-03-31T16:32:15.992Z,74.70
2018-03-31T16:34:43.997Z,74.70
2018-03-31T16:37:11.164Z,74.70
2018-03-31T16:39:38.263Z,75.10
2018-03-31T16:42:05.795Z,75.50
2018-03-31T16:44:32.913Z,75.60
2018-03-31T16:47:00.055Z,75.80
2018-03-31T16:49:27.192Z,75.80
2018-03-31T16:51:55.135Z,76.40
2018-03-31T16:54:22.239Z,76.40
2018-03-31T16:56:49.366Z,76.10
2018-03-31T16:59:16.566Z,76.60
2018-03-31T17:01:43.688Z,76.90
2018-03-31T17:04:10.866Z,76.70
2018-03-31T17:06:38.033Z,77.00
2018-03-31T17:09:05.152Z,77.20
2018-03-31T17:11:32.287Z,77.40
2018-03-31T17:13:59.451Z,77.60
2018-03-31T17:16:26.574Z,77.70
2018-03-31T17:18:53.696Z,77.90
2018-03-31T17:21:21.611Z,77.80
2018-03-31T17:23:48.730Z,77.80
2018-03-31T17:26:15.906Z,77.90
2018-03-31T17:28:43.079Z,78.10
2018-03-31T17:31:10.187Z,78.00
2018-03-31T17:33:37.344Z,78.00
2018-03-31T17:36:04.529Z,77.80
2018-03-31T17:38:31.677Z,77.80
2018-03-31T17:40:58.790Z,77.90
2018-03-31T17:43:25.956Z,77.70
2018-03-31T17:45:53.065Z,77.80
2018-03-31T17:48:20.192Z,77.30
2018-03-31T17:50:48.137Z,77.90
2018-03-31T17:53:15.364Z,77.90
2018-03-31T17:55:42.470Z,77.60
2018-03-31T17:58:10.381Z,77.10
2018-03-31T18:00:37.490Z,77.10
2018-03-31T18:03:04.610Z,77.30
2018-03-31T18:05:32.538Z,77.10
2018-03-31T18:07:59.642Z,77.10
2018-03-31T18:10:27.567Z,77.20
2018-03-31T18:12:54.689Z,77.10
2018-03-31T18:15:21.851Z,77.10
2018-03-31T18:17:49.019Z,77.40
2018-03-31T18:20:16.133Z,77.20
2018-03-31T18:22:43.324Z,77.40
2018-03-31T18:25:10.449Z,77.30
2018-03-31T18:27:37.553Z,77.60
2018-03-31T18:30:05.468Z,77.90
2018-03-31T18:32:32.557Z,77.80
2018-03-31T18:35:00.483Z,78.20
2018-03-31T18:37:27.614Z,78.10
2018-03-31T18:39:54.724Z,78.60
2018-03-31T18:42:22.690Z,79.90
2018-03-31T18:44:50.608Z,79.80
2018-03-31T18:47:17.913Z,79.80
2018-03-31T18:49:45.834Z,80.00
2018-03-31T18:52:12.941Z,80.10
2018-03-31T18:54:40.050Z,80.20
2018-03-31T18:57:07.197Z,80.60
2018-03-31T18:59:34.354Z,80.70
2018-03-31T19:02:01.536Z,81.20
2018-03-31T19:04:29.461Z,81.80
2018-03-31T19:06:56.586Z,81.70
2018-03-31T19:09:23.698Z,81.90
2018-03-31T19:11:51.608Z,82.10
2018-03-31T19:14:18.790Z,82.80
2018-03-31T19:16:51.414Z,82.30
2018-03-31T19:19:18.510Z,82.20
2018-03-31T19:21:45.635Z,81.70
2018-03-31T19:26:47.515Z,81.00
2018-03-31T19:29:14.614Z,81.40
2018-03-31T19:31:42.513Z,81.50
2018-03-31T19:34:09.718Z,81.50
2018-03-31T19:36:37.735Z,81.50
2018-03-31T19:39:04.848Z,81.50
2018-03-31T19:41:32.770Z,81.80
2018-03-31T19:43:59.925Z,81.80
2018-03-31T19:46:27.025Z,82.10
2018-03-31T19:48:54.600Z,82.30
2018-03-31T19:51:22.599Z,82.40
2018-03-31T19:53:49.853Z,82.40
2018-03-31T19:56:17.005Z,82.20
2018-03-31T19:58:44.262Z,82.50
2018-03-31T20:01:12.287Z,82.70
2018-03-31T20:03:39.486Z,82.70
2018-03-31T20:06:06.670Z,83.10
2018-03-31T20:08:33.847Z,82.50
2018-03-31T20:11:01.103Z,82.50
2018-03-31T20:13:29.037Z,82.70
2018-03-31T20:15:56.147Z,82.70
2018-03-31T20:18:23.320Z,82.70
2018-03-31T20:20:51.220Z,82.90
2018-03-31T20:23:18.354Z,82.90
2018-03-31T20:25:45.506Z,82.70
2018-03-31T20:28:12.654Z,82.80
2018-03-31T20:30:40.201Z,83.10
2018-03-31T20:33:07.354Z,82.90
2018-03-31T20:35:34.547Z,82.90
2018-03-31T20:38:01.684Z,82.50
2018-03-31T20:40:28.809Z,82.70
2018-03-31T20:42:57.395Z,82.80
2018-03-31T20:45:25.403Z,83.50
2018-03-31T20:47:53.358Z,82.70
2018-03-31T20:50:20.487Z,82.70
2018-03-31T20:52:47.598Z,82.80
2018-03-31T20:55:15.524Z,82.60
2018-03-31T20:57:42.650Z,82.60
2018-03-31T21:00:09.755Z,82.00
2018-03-31T21:02:37.682Z,82.90
2018-03-31T21:05:04.816Z,82.30
2018-03-31T21:07:31.936Z,82.70
2018-03-31T21:09:59.832Z,83.20
2018-03-31T21:12:26.988Z,83.20
2018-03-31T21:14:54.101Z,83.30
2018-03-31T21:17:21.970Z,83.10
2018-03-31T21:19:49.131Z,83.10
2018-03-31T21:22:16.275Z,82.70
2018-03-31T21:24:43.396Z,82.70
2018-03-31T21:27:11.267Z,83.00
2018-03-31T21:29:39.220Z,83.20
2018-03-31T21:32:07.106Z,82.70
2018-03-31T21:34:34.997Z,83.00
2018-03-31T21:37:02.168Z,83.00
2018-03-31T21:39:29.321Z,82.80
2018-03-31T21:41:56.512Z,82.60
2018-03-31T21:44:24.418Z,82.70
2018-03-31T21:46:51.583Z,82.60
2018-03-31T21:49:18.801Z,82.60
2018-03-31T21:51:46.984Z,82.50
2018-03-31T21:54:14.171Z,82.60
2018-03-31T21:56:41.494Z,83.10
2018-03-31T21:59:08.671Z,83.40
2018-03-31T22:01:35.794Z,82.80
2018-03-31T22:04:02.941Z,82.50
2018-03-31T22:06:30.044Z,82.50
2018-03-31T22:08:57.242Z,82.90
2018-03-31T22:11:24.356Z,83.00
2018-03-31T22:13:57.310Z,83.00
2018-03-31T22:16:24.440Z,83.20
2018-03-31T22:18:51.589Z,83.20
2018-03-31T22:21:18.728Z,83.00
2018-03-31T22:23:45.839Z,82.60
2018-03-31T22:26:13.707Z,82.60
2018-03-31T22:28:41.614Z,82.60
2018-03-31T22:31:08.842Z,82.70
2018-03-31T22:33:36.006Z,82.70
2018-03-31T22:36:03.319Z,83.00
2018-03-31T22:38:30.467Z,82.90
2018-03-31T22:40:58.338Z,83.10
2018-03-31T22:45:58.769Z,83.60
2018-03-31T22:48:26.767Z,82.50
2018-03-31T22:50:53.914Z,82.50
2018-03-31T22:53:21.043Z,82.30
2018-03-31T22:55:49.017Z,83.10
2018-03-31T22:58:16.907Z,83.00
2018-03-31T23:00:44.044Z,82.80
2018-03-31T23:03:11.182Z,83.40
2018-03-31T23:05:39.114Z,82.80
2018-03-31T23:08:06.206Z,82.80
2018-03-31T23:10:33.344Z,82.80
2018-03-31T23:13:01.254Z,82.60
2018-03-31T23:15:28.396Z,82.50
2018-03-31T23:17:55.554Z,83.00
2018-03-31T23:20:22.849Z,83.50
2018-03-31T23:22:50.730Z,83.60
2018-03-31T23:25:17.931Z,83.60
2018-03-31T23:27:45.054Z,84.00
2018-03-31T23:30:12.194Z,84.40
2018-03-31T23:32:39.331Z,83.80
2018-03-31T23:35:07.063Z,84.10
2018-03-31T23:37:34.171Z,83.60
2018-03-31T23:40:01.296Z,83.70
2018-03-31T23:42:28.443Z,82.90
2018-03-31T23:44:55.578Z,83.00
2018-03-31T23:47:23.458Z,82.90
2018-03-31T23:49:50.652Z,82.90
2018-03-31T23:52:17.757Z,82.50
2018-03-31T23:54:44.907Z,82.20
2018-03-31T23:57:12.085Z,82.10
2018-03-31T23:59:39.222Z,82.80
